Time;durP1;ratioP1;P1;durP2;ratioP2;P2;SDS_P1;SDS_P2;PMS_P1;PMS_P2;Temp;Humidity;BMP_temperature;BMP_pressure;BME280_temperature;BME280_humidity;BME280_pressure;Samples;Min_cycle;Max_cycle;Signal;HPM_P1;HPM_P2
2022/08/25 00:01:58;;;;;;;4.07;1.00;;;;;;;18.90;100.00;100045.52;1733779;81;21076;-53
2022/08/25 00:04:25;;;;;;;3.08;1.35;;;;;;;18.81;100.00;100047.60;1733889;81;21266;-53
2022/08/25 00:06:54;;;;;;;6.58;1.07;;;;;;;18.74;100.00;100049.94;1734494;81;21045;-54
2022/08/25 00:09:24;;;;;;;4.35;1.10;;;;;;;18.67;100.00;100047.81;1737070;81;21038;-52
2022/08/25 00:11:50;;;;;;;3.05;0.88;;;;;;;18.60;100.00;100050.64;1731790;81;21052;-54
2022/08/25 00:14:25;;;;;;;3.17;0.90;;;;;;;18.54;100.00;100054.67;1727629;81;21062;-53
2022/08/25 00:16:51;;;;;;;2.35;0.80;;;;;;;18.51;100.00;100058.98;1732881;81;21009;-52
2022/08/25 00:19:23;;;;;;;3.62;0.80;;;;;;;18.50;100.00;100058.11;1730756;81;21038;-53
2022/08/25 00:21:49;;;;;;;4.72;1.37;;;;;;;18.49;100.00;100059.09;1726095;81;21077;-53
2022/08/25 00:24:17;;;;;;;2.67;0.80;;;;;;;18.49;100.00;100057.73;1738077;81;21460;-53
2022/08/25 00:26:45;;;;;;;7.00;1.37;;;;;;;18.46;100.00;100048.91;1732266;81;21519;-52
2022/08/25 00:29:12;;;;;;;3.60;1.00;;;;;;;18.41;100.00;100056.09;1735877;81;21721;-53
2022/08/25 00:31:38;;;;;;;6.67;0.88;;;;;;;18.37;100.00;100055.92;1733730;81;21074;-54
2022/08/25 00:34:08;;;;;;;3.83;0.93;;;;;;;18.30;100.00;100057.37;1735604;81;21068;-54
2022/08/25 00:36:34;;;;;;;2.15;0.95;;;;;;;18.25;100.00;100053.27;1733170;81;21178;-52
2022/08/25 00:39:00;;;;;;;5.90;0.90;;;;;;;18.18;100.00;100057.45;1732574;81;21801;-53
2022/08/25 00:41:27;;;;;;;5.17;1.40;;;;;;;18.08;100.00;100062.22;1731103;81;21077;-53
2022/08/25 00:43:59;;;;;;;6.85;1.20;;;;;;;18.00;100.00;100054.23;1731528;81;21172;-54
2022/08/25 00:46:32;;;;;;;4.50;1.00;;;;;;;17.93;100.00;100059.27;1735273;81;21133;-53
2022/08/25 00:49:20;;;;;;;5.60;0.80;;;;;;;17.86;100.00;100059.34;1731179;81;21026;-53
2022/08/25 00:52:09;;;;;;;10.00;1.35;;;;;;;17.80;100.00;100063.86;1735448;81;20951;-53
2022/08/25 00:54:50;;;;;;;4.80;0.90;;;;;;;17.72;100.00;100064.91;1736666;81;21296;-53
2022/08/25 00:57:20;;;;;;;3.12;1.05;;;;;;;17.61;100.00;100062.92;1726415;81;21022;-53
2022/08/25 00:59:46;;;;;;;5.33;0.88;;;;;;;17.52;100.00;100059.53;1731392;81;21105;-52
2022/08/25 01:02:14;;;;;;;3.02;0.85;;;;;;;17.44;100.00;100058.34;1726945;81;21057;-52
2022/08/25 01:04:42;;;;;;;3.17;0.98;;;;;;;17.35;100.00;100059.34;1730586;81;21094;-52
2022/08/25 01:07:08;;;;;;;5.67;1.12;;;;;;;17.24;100.00;100062.47;1726747;81;21851;-53
2022/08/25 01:09:35;;;;;;;2.20;1.00;;;;;;;17.10;100.00;100056.63;1728489;81;22519;-52
2022/08/25 01:12:02;;;;;;;2.72;1.35;;;;;;;16.99;100.00;100056.05;1737789;81;21063;-54
2022/08/25 01:14:30;;;;;;;5.55;1.37;;;;;;;16.94;100.00;100055.95;1735148;81;21041;-54
2022/08/25 01:16:58;;;;;;;5.45;1.20;;;;;;;16.93;100.00;100055.57;1732531;81;21112;-54
2022/08/25 01:19:25;;;;;;;7.15;1.12;;;;;;;16.93;100.00;100056.93;1726980;81;21299;-53
2022/08/25 01:21:52;;;;;;;4.90;1.00;;;;;;;16.90;100.00;100055.32;1729082;81;21125;-53
2022/08/25 01:24:27;;;;;;;3.10;1.20;;;;;;;16.85;100.00;100055.23;1734584;81;21024;-54
2022/08/25 01:26:53;;;;;;;7.30;1.50;;;;;;;16.82;100.00;100049.55;1726239;81;21121;-54
2022/08/25 01:29:19;;;;;;;3.98;0.90;;;;;;;16.77;100.00;100046.25;1730236;81;21089;-51
2022/08/25 01:31:57;;;;;;;2.83;1.07;;;;;;;16.73;100.00;100049.30;1724809;81;22411;-52
2022/08/25 01:34:27;;;;;;;2.15;1.00;;;;;;;16.69;100.00;100047.76;1728559;81;21525;-51
2022/08/25 01:36:54;;;;;;;2.52;0.80;;;;;;;16.65;100.00;100045.76;1729478;81;21140;-51
2022/08/25 01:39:22;;;;;;;2.10;1.00;;;;;;;16.64;100.00;100048.09;1733915;81;20983;-49
2022/08/25 01:42:05;;;;;;;6.03;1.05;;;;;;;16.63;100.00;100051.30;1733370;81;20943;-52
2022/08/25 01:44:34;;;;;;;5.03;0.90;;;;;;;16.64;100.00;100042.16;1729815;81;21130;-50
2022/08/25 01:47:01;;;;;;;1.92;1.10;;;;;;;16.65;100.00;100041.68;1731856;81;21159;-52
2022/08/25 01:49:28;;;;;;;3.42;1.00;;;;;;;16.64;100.00;100044.02;1728400;81;20907;-50
2022/08/25 01:52:17;;;;;;;5.40;1.10;;;;;;;16.65;100.00;100044.40;1726952;81;20974;-50
2022/08/25 01:54:43;;;;;;;2.15;1.07;;;;;;;16.64;100.00;100046.24;1724610;81;20899;-51
2022/08/25 01:57:09;;;;;;;2.83;1.10;;;;;;;16.64;100.00;100049.45;1732567;81;21115;-52
2022/08/25 01:59:36;;;;;;;2.52;1.00;;;;;;;16.61;100.00;100050.52;1717354;82;21310;-52
2022/08/25 02:02:04;;;;;;;7.58;1.30;;;;;;;16.56;100.00;100045.86;1714107;82;21041;-52
2022/08/25 02:04:32;;;;;;;6.37;0.90;;;;;;;16.49;100.00;100047.27;1711714;82;21057;-54
2022/08/25 02:07:00;;;;;;;1.80;1.17;;;;;;;16.42;100.00;100051.34;1713094;82;21338;-52
2022/08/25 02:09:26;;;;;;;1.55;0.70;;;;;;;16.38;100.00;100053.02;1716111;82;21095;-53
2022/08/25 02:11:53;;;;;;;4.25;1.00;;;;;;;16.36;100.00;100050.41;1720367;82;20922;-52
2022/08/25 02:14:19;;;;;;;2.67;1.00;;;;;;;16.36;100.00;100050.89;1715894;82;20927;-53
2022/08/25 02:16:48;;;;;;;5.87;1.15;;;;;;;16.37;100.00;100054.87;1712862;82;21416;-53
2022/08/25 02:19:15;;;;;;;1.30;0.82;;;;;;;16.37;100.00;100052.16;1642901;85;20989;-52
2022/08/25 02:21:41;;;;;;;3.25;1.00;;;;;;;16.38;100.00;100055.25;1654708;85;21098;-52
2022/08/25 02:24:08;;;;;;;4.87;1.20;;;;;;;16.36;100.00;100055.84;1654929;85;21133;-52
2022/08/25 02:26:35;;;;;;;7.35;0.93;;;;;;;16.34;100.00;100059.62;1648505;85;21789;-52
2022/08/25 02:29:03;;;;;;;1.50;0.90;;;;;;;16.29;100.00;100055.88;1717048;82;21065;-53
2022/08/25 02:31:29;;;;;;;4.28;1.40;;;;;;;16.23;100.00;100055.80;1715137;82;21148;-52
2022/08/25 02:33:56;;;;;;;1.20;0.82;;;;;;;16.13;100.00;100049.23;1711259;82;21765;-54
2022/08/25 02:36:22;;;;;;;2.55;1.00;;;;;;;16.07;100.00;100053.72;1707967;81;21740;-54
2022/08/25 02:38:49;;;;;;;3.17;0.80;;;;;;;16.06;100.00;100048.39;1710156;82;21191;-54
2022/08/25 02:41:19;;;;;;;2.22;0.88;;;;;;;16.04;100.00;100053.91;1710928;82;22046;-52
2022/08/25 02:43:47;;;;;;;1.35;0.90;;;;;;;16.03;100.00;100057.59;1713367;82;21108;-52
2022/08/25 02:46:13;;;;;;;2.20;0.90;;;;;;;16.06;100.00;100056.53;1708289;82;21140;-51
2022/08/25 02:48:40;;;;;;;2.25;0.90;;;;;;;16.07;100.00;100046.06;1711641;81;22479;-52
2022/08/25 02:51:08;;;;;;;3.52;1.00;;;;;;;16.07;100.00;100048.30;1710414;82;21086;-53
2022/08/25 02:53:35;;;;;;;3.77;0.80;;;;;;;16.09;100.00;100049.52;1707584;82;21583;-52
2022/08/25 02:56:03;;;;;;;1.92;1.30;;;;;;;16.04;100.00;100047.13;1712312;82;21065;-51
2022/08/25 02:58:29;;;;;;;2.58;1.00;;;;;;;16.00;100.00;100047.41;1727609;81;21218;-52
2022/08/25 03:00:56;;;;;;;5.70;0.90;;;;;;;15.99;100.00;100051.13;1733440;81;22353;-51
2022/08/25 03:03:23;;;;;;;6.87;1.45;;;;;;;15.94;100.00;100051.41;1732269;81;21042;-54
2022/08/25 03:05:49;;;;;;;4.25;0.90;;;;;;;15.91;100.00;100053.48;1726540;81;21073;-53
2022/08/25 03:08:16;;;;;;;2.47;1.00;;;;;;;15.85;100.00;100054.23;1733750;81;21117;-53
2022/08/25 03:10:42;;;;;;;2.85;1.10;;;;;;;15.84;100.00;100053.85;1734871;81;20969;-52
2022/08/25 03:13:08;;;;;;;3.47;0.80;;;;;;;15.87;100.00;100058.22;1736720;81;21350;-54
2022/08/25 03:15:36;;;;;;;5.03;0.82;;;;;;;15.93;100.00;100059.65;1736586;81;21057;-54
2022/08/25 03:18:04;;;;;;;3.60;1.20;;;;;;;15.97;100.00;100057.14;1736743;81;21034;-53
2022/08/25 03:20:30;;;;;;;6.15;1.47;;;;;;;16.04;100.00;100050.33;1737676;81;21544;-52
2022/08/25 03:22:57;;;;;;;12.03;1.22;;;;;;;16.09;100.00;100050.39;1741029;81;21201;-54
2022/08/25 03:28:09;;;;;;;7.85;0.90;;;;;;;16.15;100.00;100055.45;1732481;81;21101;-54
2022/08/25 03:30:35;;;;;;;4.45;1.15;;;;;;;16.17;100.00;100049.88;1737828;81;21049;-53
2022/08/25 03:33:02;;;;;;;5.20;1.17;;;;;;;16.16;100.00;100049.02;1736060;81;21107;-52
2022/08/25 03:35:28;;;;;;;2.98;1.00;;;;;;;16.18;100.00;100050.27;1730451;81;21674;-53
2022/08/25 03:37:56;;;;;;;2.58;1.00;;;;;;;16.19;100.00;100050.66;1736570;81;21040;-51
2022/08/25 03:40:22;;;;;;;2.70;0.85;;;;;;;16.19;100.00;100052.02;1735375;81;21556;-51
2022/08/25 03:42:49;;;;;;;2.90;0.90;;;;;;;16.22;100.00;100051.83;1738773;81;21112;-55
2022/08/25 03:45:16;;;;;;;7.90;1.10;;;;;;;16.25;100.00;100044.33;1735751;81;21105;-52
2022/08/25 03:47:46;;;;;;;4.87;0.98;;;;;;;16.33;100.00;100052.47;1735425;81;21686;-50
2022/08/25 03:50:14;;;;;;;2.50;1.10;;;;;;;16.40;100.00;100049.72;1735778;81;21042;-50
2022/08/25 03:52:41;;;;;;;3.35;1.10;;;;;;;16.44;100.00;100049.40;1735673;81;21039;-53
2022/08/25 03:55:09;;;;;;;18.85;1.10;;;;;;;16.48;100.00;100045.52;1728614;81;21524;-50
2022/08/25 03:57:37;;;;;;;18.17;2.22;;;;;;;16.51;100.00;100053.92;1738471;81;21076;-51
2022/08/25 04:00:09;;;;;;;13.25;1.75;;;;;;;16.56;100.00;100047.70;1734198;81;21152;-50
2022/08/25 04:02:40;;;;;;;8.48;1.40;;;;;;;16.61;100.00;100045.56;1727936;81;21088;-51
2022/08/25 04:05:08;;;;;;;9.13;0.85;;;;;;;16.68;100.00;100048.24;1728041;81;21491;-53
2022/08/25 04:07:35;;;;;;;23.00;2.35;;;;;;;16.77;100.00;100043.53;1736508;81;21057;-51
2022/08/25 04:10:04;;;;;;;23.85;1.55;;;;;;;16.93;100.00;100044.21;1726466;81;20985;-53
2022/08/25 04:12:31;;;;;;;19.07;1.90;;;;;;;17.20;100.00;100036.45;1729749;81;21527;-51
2022/08/25 04:14:57;;;;;;;11.78;1.40;;;;;;;17.56;100.00;100031.59;1726721;81;21022;-52
2022/08/25 04:17:24;;;;;;;16.05;1.40;;;;;;;17.97;100.00;100029.94;1730998;81;21061;-51
2022/08/25 04:19:50;;;;;;;16.27;1.22;;;;;;;18.41;100.00;100026.59;1727578;81;21046;-51
2022/08/25 04:22:17;;;;;;;14.18;1.22;;;;;;;18.87;100.00;100022.60;1729332;81;21353;-52
2022/08/25 04:24:43;;;;;;;8.95;1.75;;;;;;;19.30;100.00;100014.63;1731521;81;21128;-51
2022/08/25 04:27:09;;;;;;;7.85;1.32;;;;;;;19.74;100.00;100015.61;1728027;81;20871;-52
2022/08/25 04:29:36;;;;;;;7.62;1.22;;;;;;;20.13;100.00;100013.70;1726078;81;21374;-52
2022/08/25 04:32:03;;;;;;;15.03;1.42;;;;;;;20.46;100.00;100007.78;1733209;81;20938;-51
2022/08/25 04:34:30;;;;;;;10.50;1.77;;;;;;;20.67;100.00;100004.59;1738819;81;21522;-54
2022/08/25 04:37:00;;;;;;;14.00;3.02;;;;;;;20.81;100.00;100001.53;1732124;81;21147;-52
2022/08/25 04:39:26;;;;;;;10.93;1.40;;;;;;;20.89;100.00;100001.73;1736006;81;20958;-52
2022/08/25 04:41:53;;;;;;;5.05;1.12;;;;;;;20.95;100.00;100002.55;1732735;81;20989;-53
2022/08/25 04:44:19;;;;;;;5.03;1.10;;;;;;;20.97;100.00;100000.56;1728491;81;21117;-53
2022/08/25 04:46:46;;;;;;;5.80;1.42;;;;;;;20.97;100.00;100002.42;1731039;81;20939;-51
2022/08/25 04:49:12;;;;;;;3.85;1.30;;;;;;;20.98;100.00;100002.30;1730556;81;21094;-53
2022/08/25 04:51:39;;;;;;;4.92;1.30;;;;;;;21.02;100.00;100004.25;1730380;81;21899;-51
2022/08/25 04:54:15;;;;;;;3.35;1.00;;;;;;;21.04;100.00;100003.63;1726507;81;21086;-50
2022/08/25 04:56:42;;;;;;;2.12;1.20;;;;;;;21.04;100.00;100009.96;1659776;84;20973;-52
2022/08/25 04:59:10;;;;;;;3.77;1.20;;;;;;;21.03;100.00;100001.38;1731903;80;21455;-53
2022/08/25 05:01:37;;;;;;;3.27;1.10;;;;;;;21.04;100.00;100000.38;1737235;80;21361;-52
2022/08/25 05:04:06;;;;;;;8.95;1.47;;;;;;;21.04;100.00;99995.41;1735762;80;21077;-52
2022/08/25 05:06:33;;;;;;;9.23;1.98;;;;;;;21.05;100.00;100000.75;1736150;80;20975;-52
2022/08/25 05:09:00;;;;;;;4.53;1.10;;;;;;;21.08;100.00;99996.89;1736564;80;20966;-52
2022/08/25 05:11:26;;;;;;;3.72;1.40;;;;;;;21.09;100.00;99987.19;1733758;80;21125;-51
2022/08/25 05:13:54;;;;;;;5.12;1.40;;;;;;;21.13;100.00;99990.50;1732207;80;21289;-51
2022/08/25 05:16:22;;;;;;;5.10;1.37;;;;;;;21.14;100.00;99994.47;1673641;83;21054;-51
2022/08/25 05:18:49;;;;;;;2.42;1.45;;;;;;;21.15;100.00;99992.11;1671419;84;21420;-54
2022/08/25 05:21:20;;;;;;;4.22;1.00;;;;;;;21.21;100.00;99988.48;1737497;80;21093;-52
2022/08/25 05:23:47;;;;;;;4.70;1.30;;;;;;;21.25;100.00;99989.96;1734410;80;21518;-51
2022/08/25 05:26:20;;;;;;;3.25;1.50;;;;;;;21.28;100.00;99986.93;1733077;80;21158;-52
2022/08/25 05:28:48;;;;;;;2.77;1.47;;;;;;;21.33;100.00;99980.56;1730499;80;21069;-53
2022/08/25 05:31:15;;;;;;;2.83;1.30;;;;;;;21.39;100.00;99989.09;1733836;80;21105;-53
2022/08/25 05:33:42;;;;;;;3.67;1.57;;;;;;;21.46;100.00;99986.66;1729900;80;21021;-50
2022/08/25 05:36:09;;;;;;;1.40;1.20;;;;;;;21.55;100.00;99987.70;1727705;80;21613;-53
2022/08/25 05:38:38;;;;;;;6.58;1.30;;;;;;;21.62;100.00;99991.13;1731474;80;21322;-51
2022/08/25 05:41:09;;;;;;;2.10;1.22;;;;;;;21.70;100.00;99986.31;1735650;80;21128;-53
2022/08/25 05:43:38;;;;;;;5.08;1.40;;;;;;;21.79;100.00;99981.38;1736112;80;21219;-53
2022/08/25 05:46:05;;;;;;;6.25;1.62;;;;;;;21.86;100.00;99986.16;1741339;80;21106;-54
2022/08/25 05:48:33;;;;;;;3.40;1.57;;;;;;;21.96;100.00;99988.92;1736797;80;21085;-52
2022/08/25 05:51:02;;;;;;;3.42;1.30;;;;;;;22.05;100.00;99982.62;1730921;80;21153;-56
2022/08/25 05:53:29;;;;;;;2.08;1.30;;;;;;;22.13;100.00;99981.92;1736360;80;21674;-54
2022/08/25 05:55:56;;;;;;;4.65;1.55;;;;;;;22.22;100.00;99978.33;1736020;80;21108;-51
2022/08/25 05:58:23;;;;;;;3.27;1.50;;;;;;;22.29;100.00;99974.00;1735344;80;21054;-54
2022/08/25 06:00:50;;;;;;;3.75;1.40;;;;;;;22.34;100.00;99979.07;1742602;80;21109;-52
2022/08/25 06:03:17;;;;;;;4.22;1.05;;;;;;;22.39;100.00;99976.75;1747004;80;21199;-55
2022/08/25 06:05:43;;;;;;;4.78;1.40;;;;;;;22.43;100.00;99976.34;1740509;80;21065;-53
2022/08/25 06:08:10;;;;;;;4.40;1.50;;;;;;;22.47;100.00;99970.04;1743905;80;21055;-53
2022/08/25 06:10:37;;;;;;;19.75;2.15;;;;;;;22.53;100.00;99975.84;1741704;80;21034;-54
2022/08/25 06:13:03;;;;;;;7.55;1.57;;;;;;;22.59;100.00;99975.25;1738256;80;21073;-56
2022/08/25 06:15:30;;;;;;;3.98;1.52;;;;;;;22.69;100.00;99968.89;1741945;80;22151;-54
2022/08/25 06:17:57;;;;;;;4.50;1.10;;;;;;;22.76;100.00;99972.81;1740445;80;21061;-55
2022/08/25 06:20:25;;;;;;;7.22;1.50;;;;;;;22.85;100.00;99971.44;1736469;80;21065;-53
2022/08/25 06:22:52;;;;;;;5.90;1.57;;;;;;;22.94;100.00;99977.92;1744732;80;21076;-52
2022/08/25 06:25:21;;;;;;;2.27;1.52;;;;;;;23.02;100.00;99976.67;1744753;80;21178;-52
2022/08/25 06:27:48;;;;;;;3.02;1.80;;;;;;;23.10;100.00;99980.92;1740555;80;21062;-51
2022/08/25 06:30:18;;;;;;;5.17;1.27;;;;;;;23.18;100.00;99980.17;1741409;80;21013;-53
2022/08/25 06:32:45;;;;;;;5.22;2.08;;;;;;;23.24;100.00;99977.69;1742307;80;21057;-55
2022/08/25 06:35:15;;;;;;;4.45;1.37;;;;;;;23.29;100.00;99980.88;1739900;80;21013;-55
2022/08/25 06:37:41;;;;;;;5.85;1.80;;;;;;;23.35;100.00;99982.14;1747495;80;21110;-53
2022/08/25 06:40:09;;;;;;;3.40;1.32;;;;;;;23.40;100.00;99977.05;1740180;80;21666;-53
2022/08/25 06:42:36;;;;;;;4.83;1.47;;;;;;;23.47;100.00;99977.34;1745760;80;20989;-52
2022/08/25 06:45:05;;;;;;;7.03;1.30;;;;;;;23.54;100.00;99988.11;1745604;80;21061;-54
2022/08/25 06:47:32;;;;;;;10.35;1.35;;;;;;;23.60;100.00;99989.74;1738255;80;21097;-55
2022/08/25 06:49:58;;;;;;;7.70;1.45;;;;;;;23.66;100.00;99982.26;1742225;80;21693;-52
2022/08/25 06:52:25;;;;;;;1.70;1.50;;;;;;;23.72;100.00;99984.93;1741906;80;21088;-54
2022/08/25 06:54:52;;;;;;;6.12;2.12;;;;;;;23.78;100.00;99980.19;1743752;80;21564;-53
2022/08/25 06:57:18;;;;;;;2.93;1.20;;;;;;;23.84;100.00;99976.81;1740070;80;21121;-54
2022/08/25 06:59:45;;;;;;;11.25;1.60;;;;;;;23.91;100.00;99977.93;1732213;80;21587;-53
2022/08/25 07:02:11;;;;;;;5.22;1.37;;;;;;;23.98;100.00;99985.95;1707466;82;21035;-52
2022/08/25 07:04:37;;;;;;;7.35;1.25;;;;;;;24.00;100.00;99983.88;1711854;82;21117;-53
2022/08/25 07:07:04;;;;;;;3.80;0.95;;;;;;;24.07;100.00;99985.53;1715039;82;21410;-54
2022/08/25 07:09:30;;;;;;;13.72;1.95;;;;;;;24.13;100.00;99984.40;1708036;82;21106;-53
2022/08/25 07:11:57;;;;;;;2.17;1.22;;;;;;;24.20;100.00;99983.26;1715458;82;21062;-55
2022/08/25 07:14:24;;;;;;;4.60;1.10;;;;;;;24.27;100.00;99980.27;1709321;82;21085;-53
2022/08/25 07:16:50;;;;;;;4.70;1.02;;;;;;;24.36;100.00;99977.95;1713319;82;21623;-52
2022/08/25 07:19:19;;;;;;;3.00;1.25;;;;;;;24.44;100.00;99976.66;1714167;82;21161;-53
2022/08/25 07:21:45;;;;;;;3.65;1.00;;;;;;;24.54;100.00;99977.09;1707652;81;21126;-52
2022/08/25 07:24:12;;;;;;;5.30;1.17;;;;;;;24.62;100.00;99975.80;1711326;82;21640;-54
2022/08/25 07:26:41;;;;;;;1.80;1.10;;;;;;;24.69;100.00;99975.00;1709624;82;21101;-54
2022/08/25 07:29:12;;;;;;;1.50;1.00;;;;;;;24.76;100.00;99965.08;1708455;81;21149;-52
2022/08/25 07:31:38;;;;;;;4.08;1.30;;;;;;;24.83;100.00;99971.70;1710313;82;21520;-53
2022/08/25 07:36:53;;;;;;;2.17;1.00;;;;;;;24.93;100.00;99964.73;1628661;86;21051;-54
2022/08/25 07:39:20;;;;;;;3.85;0.98;;;;;;;25.00;100.00;99963.09;1627972;86;21453;-55
2022/08/25 07:41:46;;;;;;;5.33;1.30;;;;;;;25.05;100.00;99956.56;1654887;82;21272;-54
2022/08/25 07:44:13;;;;;;;5.72;0.90;;;;;;;25.14;100.00;99960.24;1656804;85;21551;-54
2022/08/25 07:46:39;;;;;;;4.28;1.10;;;;;;;25.23;100.00;99958.77;1711868;81;21071;-54
2022/08/25 07:49:06;;;;;;;5.03;0.90;;;;;;;25.34;100.00;99957.63;1711171;82;20997;-57
2022/08/25 07:51:32;;;;;;;5.83;1.10;;;;;;;25.43;100.00;99952.52;1708493;82;21059;-53
2022/08/25 07:53:59;;;;;;;1.75;1.00;;;;;;;25.52;100.00;99952.88;1713610;81;21477;-53
2022/08/25 07:56:25;;;;;;;5.28;1.05;;;;;;;25.59;100.00;99942.98;1712579;82;20927;-55
2022/08/25 07:58:52;;;;;;;1.75;0.93;;;;;;;25.69;100.00;99942.82;1710248;82;20964;-53
2022/08/25 08:01:20;;;;;;;5.25;0.90;;;;;;;25.79;100.00;99942.69;1729020;81;21038;-55
2022/08/25 08:03:47;;;;;;;1.87;0.98;;;;;;;25.88;100.00;99939.80;1734531;81;21441;-52
2022/08/25 08:06:17;;;;;;;2.80;1.05;;;;;;;25.97;100.00;99942.07;1733453;81;21080;-53
2022/08/25 08:08:44;;;;;;;2.83;0.98;;;;;;;26.01;100.00;99932.44;1731010;81;21684;-52
2022/08/25 08:11:19;;;;;;;4.75;0.80;;;;;;;26.08;100.00;99929.36;1735519;81;21052;-53
2022/08/25 08:13:46;;;;;;;6.97;0.90;;;;;;;26.16;100.00;99927.13;1733642;81;21101;-53
2022/08/25 08:16:15;;;;;;;3.15;0.70;;;;;;;26.24;100.00;99922.48;1732002;81;21493;-55
2022/08/25 08:18:43;;;;;;;13.03;1.42;;;;;;;26.32;100.00;99925.80;1732944;81;22451;-52
2022/08/25 08:21:19;;;;;;;4.75;0.80;;;;;;;26.41;100.00;99923.40;1735162;81;21042;-53
2022/08/25 08:23:47;;;;;;;2.02;0.98;;;;;;;26.50;100.00;99926.52;1703375;81;21089;-53
2022/08/25 08:26:14;;;;;;;5.97;0.80;;;;;;;26.60;100.00;99926.35;1671597;84;21067;-52
2022/08/25 08:28:40;;;;;;;2.72;0.80;;;;;;;26.69;100.00;99922.04;1667079;84;21661;-55
2022/08/25 08:31:07;;;;;;;4.70;1.52;;;;;;;26.73;100.00;99913.73;1665800;84;21196;-55
2022/08/25 08:33:34;;;;;;;6.62;1.00;;;;;;;26.75;100.00;99919.09;1662784;84;21543;-53
2022/08/25 08:36:04;;;;;;;2.58;1.00;;;;;;;26.79;100.00;99913.58;1730506;81;21062;-53
2022/08/25 08:38:30;;;;;;;8.45;0.88;;;;;;;26.88;100.00;99908.91;1732934;81;21058;-55
2022/08/25 08:44:48;;;;;;;4.87;0.70;;;;;;;27.04;100.00;99904.26;1732019;81;21806;-53
2022/08/25 08:47:29;;;;;;;3.30;0.90;;;;;;;27.20;100.00;99903.87;1729188;81;21057;-53
2022/08/25 08:50:23;;;;;;;6.30;0.90;;;;;;;27.30;100.00;99900.39;1731414;81;21066;-54
2022/08/25 08:53:11;;;;;;;4.05;1.00;;;;;;;27.40;100.00;99901.02;1730774;81;21126;-53
2022/08/25 08:55:48;;;;;;;6.78;0.75;;;;;;;27.48;100.00;99899.61;1735667;81;21061;-55
2022/08/25 08:58:26;;;;;;;3.70;0.80;;;;;;;27.54;100.00;99896.19;1733358;81;21825;-51
2022/08/25 09:00:57;;;;;;;2.75;0.90;;;;;;;27.62;100.00;99893.38;1732448;80;21094;-53
2022/08/25 09:03:32;;;;;;;6.00;0.85;;;;;;;27.71;100.00;99895.07;1731796;80;21759;-53
2022/08/25 09:06:23;;;;;;;5.42;0.88;;;;;;;27.82;100.00;99893.78;1733297;80;21049;-55
2022/08/25 09:08:51;;;;;;;0.95;0.70;;;;;;;27.92;100.00;99891.66;1732004;80;21415;-55
2022/08/25 09:11:29;;;;;;;2.72;0.90;;;;;;;28.06;100.00;99892.80;1732250;80;21213;-52
2022/08/25 09:14:38;;;;;;;7.42;0.80;;;;;;;28.16;100.00;99895.68;1715537;80;21117;-53
2022/08/25 09:17:28;;;;;;;2.50;0.70;;;;;;;28.25;100.00;99896.48;1716941;80;21104;-55
2022/08/25 09:20:23;;;;;;;2.83;0.60;;;;;;;28.36;100.00;99893.82;1735674;80;21085;-54
2022/08/25 09:23:14;;;;;;;5.42;0.70;;;;;;;28.45;100.00;99896.86;1727483;80;21626;-52
2022/08/25 09:26:02;;;;;;;2.80;0.70;;;;;;;28.52;100.00;99889.02;1735087;80;21857;-51
2022/08/25 09:28:49;;;;;;;4.83;0.70;;;;;;;28.60;100.00;99882.02;1733787;80;21464;-55
2022/08/25 09:31:22;;;;;;;1.85;0.93;;;;;;;28.68;100.00;99881.60;1733208;80;21109;-52
2022/08/25 09:33:49;;;;;;;3.95;0.88;;;;;;;28.78;100.00;99879.47;1731197;80;21058;-54
2022/08/25 09:36:16;;;;;;;1.42;0.65;;;;;;;28.85;100.00;99883.20;1731223;80;21101;-55
2022/08/25 09:38:43;;;;;;;2.62;0.60;;;;;;;28.89;100.00;99889.58;1736012;80;21251;-54
2022/08/25 09:41:10;;;;;;;1.80;0.57;;;;;;;28.94;100.00;99883.46;1732549;80;21035;-55
2022/08/25 09:43:41;;;;;;;1.82;0.55;;;;;;;28.98;100.00;99877.38;1734511;80;21779;-52
2022/08/25 09:46:19;;;;;;;7.10;0.75;;;;;;;29.06;100.00;99878.33;1737390;80;21056;-53
2022/08/25 09:48:53;;;;;;;0.80;0.50;;;;;;;29.13;100.00;99874.60;1735106;80;21042;-53
2022/08/25 09:51:30;;;;;;;4.90;0.65;;;;;;;29.19;100.00;99869.67;1734012;80;21125;-53
2022/08/25 09:54:17;;;;;;;5.22;0.50;;;;;;;29.27;100.00;99870.10;1737821;80;21081;-54
2022/08/25 09:56:59;;;;;;;3.17;0.50;;;;;;;29.34;100.00;99870.56;1690275;82;21701;-52
2022/08/25 09:59:33;;;;;;;2.85;0.50;;;;;;;29.41;100.00;99862.36;1732911;81;22459;-52
2022/08/25 10:02:03;;;;;;;4.70;0.50;;;;;;;29.48;100.00;99862.44;1703116;82;21323;-53
2022/08/25 10:04:38;;;;;;;2.25;0.50;;;;;;;29.52;100.00;99860.47;1741741;80;21084;-53
2022/08/25 10:07:25;;;;;;;2.37;0.40;;;;;;;29.58;100.00;99861.10;1743822;80;21101;-55
2022/08/25 10:09:54;;;;;;;3.80;0.60;;;;;;;29.61;100.00;99845.96;1708296;80;21517;-51
2022/08/25 10:12:32;;;;;;;0.78;0.40;;;;;;;29.66;100.00;99842.09;1744235;80;21401;-54
2022/08/25 10:14:59;;;;;;;0.95;0.60;;;;;;;29.70;100.00;99841.50;1738256;80;21471;-53
2022/08/25 10:17:28;;;;;;;1.52;0.50;;;;;;;29.75;100.00;99839.55;1737797;80;21094;-52
2022/08/25 10:20:19;;;;;;;0.60;0.50;;;;;;;29.78;100.00;99832.20;1741561;80;21571;-52
2022/08/25 10:22:46;;;;;;;0.55;0.50;;;;;;;29.79;100.00;99832.53;1741676;80;21030;-53
2022/08/25 10:25:17;;;;;;;3.72;0.45;;;;;;;29.82;100.00;99836.84;1746163;80;21552;-52
2022/08/25 10:28:19;;;;;;;2.70;0.60;;;;;;;29.84;100.00;99827.27;1743037;80;20911;-55
2022/08/25 10:31:00;;;;;;;3.67;0.50;;;;;;;29.88;100.00;99821.65;1744247;80;21121;-53
2022/08/25 10:33:56;;;;;;;1.98;0.40;;;;;;;29.93;100.00;99816.39;1739245;80;21072;-54
2022/08/25 10:36:37;;;;;;;4.83;0.40;;;;;;;30.00;100.00;99807.62;1736497;80;21171;-52
2022/08/25 10:39:03;;;;;;;0.78;0.50;;;;;;;30.08;100.00;99811.66;1741786;80;21416;-52
2022/08/25 10:41:50;;;;;;;0.68;0.35;;;;;;;30.17;100.00;99811.00;1746143;80;20966;-52
2022/08/25 10:47:55;;;;;;;1.92;0.30;;;;;;;30.32;100.00;99813.70;1749312;80;20887;-53
2022/08/25 10:50:38;;;;;;;2.65;0.40;;;;;;;30.41;100.00;99814.75;1751092;80;20970;-53
2022/08/25 10:53:42;;;;;;;4.97;0.50;;;;;;;30.44;100.00;99810.72;1750804;80;20897;-54
2022/08/25 10:56:29;;;;;;;1.25;0.40;;;;;;;30.46;100.00;99811.36;1748313;80;20970;-54
2022/08/25 10:59:11;;;;;;;1.40;0.40;;;;;;;30.48;100.00;99803.16;1749614;80;20934;-53
2022/08/25 11:02:19;;;;;;;2.60;0.40;;;;;;;30.51;100.00;99806.11;1740872;80;21084;-53
2022/08/25 11:05:39;;;;;;;3.70;0.50;;;;;;;30.56;100.00;99793.86;1737144;80;21039;-54
2022/08/25 11:08:14;;;;;;;4.17;0.50;;;;;;;30.63;100.00;99800.84;1731725;80;21046;-53
2022/08/25 11:10:53;;;;;;;1.10;0.50;;;;;;;30.64;100.00;99790.06;1738542;80;21348;-52
2022/08/25 11:15:06;;;;;;;3.62;0.40;;;;;;;30.71;100.00;99787.66;1780349;78;22604;-51
2022/08/25 11:17:50;;;;;;;2.70;0.68;;;;;;;30.69;100.00;99795.36;1750296;80;21557;-51
2022/08/25 11:20:21;;;;;;;1.47;0.50;;;;;;;30.69;100.00;99787.03;1748776;80;21120;-52
2022/08/25 11:23:11;;;;;;;5.85;0.62;;;;;;;30.66;100.00;99787.95;1753313;80;21027;-53
2022/08/25 11:25:45;;;;;;;2.25;0.70;;;;;;;30.58;100.00;99777.85;1753164;80;21444;-51
2022/08/25 11:28:49;;;;;;;4.67;0.60;;;;;;;30.56;100.00;99784.66;1750822;80;21077;-54
2022/08/25 11:31:16;;;;;;;1.72;0.40;;;;;;;30.57;100.00;99771.96;1749154;80;21053;-53
2022/08/25 11:33:43;;;;;;;2.33;0.40;;;;;;;30.63;100.00;99777.23;1747704;80;21803;-52
2022/08/25 11:36:21;;;;;;;0.50;0.40;;;;;;;30.61;100.00;99779.37;1754906;80;21508;-53
2022/08/25 11:39:02;;;;;;;7.55;1.35;;;;;;;30.53;100.00;99778.14;1750619;80;21097;-53
2022/08/25 11:42:08;;;;;;;1.55;0.40;;;;;;;30.40;100.00;99766.34;1752504;80;21039;-52
2022/08/25 11:44:55;;;;;;;2.35;0.50;;;;;;;30.37;100.00;99768.12;1733090;80;21095;-53
2022/08/25 11:47:53;;;;;;;2.30;1.25;;;;;;;30.40;100.00;99770.52;1755728;80;21400;-51
2022/08/25 11:50:28;;;;;;;6.97;0.95;;;;;;;30.42;100.00;99753.12;1757511;80;21039;-53
2022/08/25 11:53:36;;;;;;;1.20;0.50;;;;;;;30.45;100.00;99753.56;1750638;80;21071;-53
2022/08/25 11:56:11;;;;;;;1.67;0.50;;;;;;;30.48;100.00;99760.64;1753903;80;21061;-51